sensor_id;sensor_type;location;lat;lon;timestamp;pressure;altitude;pressure_sealevel;temperature;humidity
55990;BME280;41875;55.806;38.082;2024-02-26T00:01:06;100471.25;;;-2.57;63.38
55990;BME280;41875;55.806;38.082;2024-02-26T00:05:08;100482.63;;;-2.11;63.19
55990;BME280;41875;55.806;38.082;2024-02-26T00:08:15;100476.84;;;-1.94;65.02
55990;BME280;41875;55.806;38.082;2024-02-26T00:12:21;100469.31;;;-2.51;63.52
55990;BME280;41875;55.806;38.082;2024-02-26T00:21:28;100459.56;;;-2.44;63.96
55990;BME280;41875;55.806;38.082;2024-02-26T00:24:32;100462.16;;;-2.71;65.22
55990;BME280;41875;55.806;38.082;2024-02-26T00:27:40;100465.25;;;-2.34;63.38
55990;BME280;41875;55.806;38.082;2024-02-26T00:31:06;100446.66;;;-2.72;63.69
55990;BME280;41875;55.806;38.082;2024-02-26T00:34:14;100468.53;;;-2.54;64.98
55990;BME280;41875;55.806;38.082;2024-02-26T00:37:20;100448.41;;;-2.73;62.89
55990;BME280;41875;55.806;38.082;2024-02-26T00:40:27;100460.78;;;-2.81;63.56
55990;BME280;41875;55.806;38.082;2024-02-26T00:43:32;100455.41;;;-2.24;63.95
55990;BME280;41875;55.806;38.082;2024-02-26T00:46:36;100462.66;;;-2.59;64.15
55990;BME280;41875;55.806;38.082;2024-02-26T00:49:40;100465.47;;;-2.66;63.75
55990;BME280;41875;55.806;38.082;2024-02-26T00:52:46;100463.59;;;-2.35;64.34
55990;BME280;41875;55.806;38.082;2024-02-26T00:55:50;100446.78;;;-2.25;63.68
55990;BME280;41875;55.806;38.082;2024-02-26T00:58:54;100459.50;;;-2.42;63.51
55990;BME280;41875;55.806;38.082;2024-02-26T01:01:58;100456.41;;;-2.54;63.33
55990;BME280;41875;55.806;38.082;2024-02-26T01:05:05;100447.59;;;-2.48;63.10
55990;BME280;41875;55.806;38.082;2024-02-26T01:08:13;100452.28;;;-2.34;64.88
55990;BME280;41875;55.806;38.082;2024-02-26T01:11:17;100441.31;;;-2.68;62.36
55990;BME280;41875;55.806;38.082;2024-02-26T01:14:20;100456.25;;;-2.49;65.52
55990;BME280;41875;55.806;38.082;2024-02-26T01:17:29;100455.66;;;-2.32;64.86
55990;BME280;41875;55.806;38.082;2024-02-26T01:24:58;100450.88;;;-2.70;63.99
55990;BME280;41875;55.806;38.082;2024-02-26T01:28:23;100446.56;;;-2.69;63.28
55990;BME280;41875;55.806;38.082;2024-02-26T01:31:44;100449.69;;;-2.59;64.42
55990;BME280;41875;55.806;38.082;2024-02-26T01:34:49;100445.56;;;-2.65;62.37
55990;BME280;41875;55.806;38.082;2024-02-26T01:37:53;100457.88;;;-2.72;63.67
55990;BME280;41875;55.806;38.082;2024-02-26T01:41:03;100452.94;;;-2.80;63.23
55990;BME280;41875;55.806;38.082;2024-02-26T01:44:12;100455.56;;;-2.54;64.21
55990;BME280;41875;55.806;38.082;2024-02-26T01:47:16;100449.38;;;-2.50;65.39
55990;BME280;41875;55.806;38.082;2024-02-26T01:50:20;100447.06;;;-2.85;64.88
55990;BME280;41875;55.806;38.082;2024-02-26T01:53:25;100450.59;;;-2.61;63.06
55990;BME280;41875;55.806;38.082;2024-02-26T01:56:31;100449.16;;;-2.69;64.39
55990;BME280;41875;55.806;38.082;2024-02-26T01:59:38;100450.91;;;-2.45;62.36
55990;BME280;41875;55.806;38.082;2024-02-26T02:02:50;100444.22;;;-2.77;63.37
55990;BME280;41875;55.806;38.082;2024-02-26T02:05:54;100437.91;;;-2.95;62.44
55990;BME280;41875;55.806;38.082;2024-02-26T02:10:31;100437.28;;;-2.77;63.01
55990;BME280;41875;55.806;38.082;2024-02-26T02:19:03;100435.94;;;-2.36;62.32
55990;BME280;41875;55.806;38.082;2024-02-26T02:22:11;100435.75;;;-2.82;62.99
55990;BME280;41875;55.806;38.082;2024-02-26T02:25:14;100429.19;;;-2.42;64.01
55990;BME280;41875;55.806;38.082;2024-02-26T02:28:56;100434.66;;;-2.50;62.38
55990;BME280;41875;55.806;38.082;2024-02-26T02:38:21;100434.28;;;-2.91;62.53
55990;BME280;41875;55.806;38.082;2024-02-26T02:41:26;100426.72;;;-2.70;62.35
55990;BME280;41875;55.806;38.082;2024-02-26T02:44:32;100422.78;;;-2.82;64.15
55990;BME280;41875;55.806;38.082;2024-02-26T02:47:38;100430.09;;;-2.68;62.71
55990;BME280;41875;55.806;38.082;2024-02-26T02:50:46;100426.31;;;-2.85;61.64
55990;BME280;41875;55.806;38.082;2024-02-26T02:53:52;100430.06;;;-3.20;63.39
55990;BME280;41875;55.806;38.082;2024-02-26T02:57:26;100419.06;;;-3.29;63.20
55990;BME280;41875;55.806;38.082;2024-02-26T03:00:37;100429.59;;;-3.33;63.33
55990;BME280;41875;55.806;38.082;2024-02-26T03:04:33;100425.16;;;-3.30;63.64
55990;BME280;41875;55.806;38.082;2024-02-26T03:07:52;100420.09;;;-3.06;62.51
55990;BME280;41875;55.806;38.082;2024-02-26T03:16:13;100423.50;;;-3.04;62.81
55990;BME280;41875;55.806;38.082;2024-02-26T03:19:17;100424.09;;;-3.24;63.75
55990;BME280;41875;55.806;38.082;2024-02-26T03:22:44;100429.34;;;-2.99;64.13
55990;BME280;41875;55.806;38.082;2024-02-26T03:46:51;100416.88;;;-3.41;63.57
55990;BME280;41875;55.806;38.082;2024-02-26T03:49:55;100421.03;;;-3.09;62.46
55990;BME280;41875;55.806;38.082;2024-02-26T03:53:04;100422.38;;;-3.52;63.32
55990;BME280;41875;55.806;38.082;2024-02-26T03:56:45;100418.41;;;-3.35;64.00
55990;BME280;41875;55.806;38.082;2024-02-26T03:59:52;100425.13;;;-3.01;65.34
55990;BME280;41875;55.806;38.082;2024-02-26T04:03:00;100420.91;;;-3.32;63.71
55990;BME280;41875;55.806;38.082;2024-02-26T04:06:04;100418.97;;;-3.26;64.31
55990;BME280;41875;55.806;38.082;2024-02-26T04:09:08;100429.50;;;-3.30;64.21
55990;BME280;41875;55.806;38.082;2024-02-26T04:12:39;100428.56;;;-3.01;63.97
55990;BME280;41875;55.806;38.082;2024-02-26T04:16:47;100426.75;;;-3.26;64.25
55990;BME280;41875;55.806;38.082;2024-02-26T04:21:45;100420.19;;;-3.38;63.95
55990;BME280;41875;55.806;38.082;2024-02-26T04:24:49;100426.66;;;-3.51;65.99
55990;BME280;41875;55.806;38.082;2024-02-26T04:27:56;100428.09;;;-3.41;64.29
55990;BME280;41875;55.806;38.082;2024-02-26T04:30:59;100417.75;;;-3.42;65.41
55990;BME280;41875;55.806;38.082;2024-02-26T04:34:04;100422.31;;;-3.22;64.29
55990;BME280;41875;55.806;38.082;2024-02-26T04:37:09;100423.13;;;-3.77;63.44
55990;BME280;41875;55.806;38.082;2024-02-26T04:40:13;100427.84;;;-3.61;63.88
55990;BME280;41875;55.806;38.082;2024-02-26T04:43:18;100426.81;;;-3.56;64.97
55990;BME280;41875;55.806;38.082;2024-02-26T04:46:27;100428.06;;;-3.69;64.11
55990;BME280;41875;55.806;38.082;2024-02-26T04:49:45;100435.53;;;-3.58;64.56
55990;BME280;41875;55.806;38.082;2024-02-26T04:53:36;100425.63;;;-3.74;65.02
55990;BME280;41875;55.806;38.082;2024-02-26T04:56:40;100430.63;;;-3.39;64.31
55990;BME280;41875;55.806;38.082;2024-02-26T05:00:12;100433.81;;;-3.31;64.08
55990;BME280;41875;55.806;38.082;2024-02-26T05:03:18;100421.88;;;-3.35;65.09
55990;BME280;41875;55.806;38.082;2024-02-26T05:06:30;100423.84;;;-3.43;65.23
55990;BME280;41875;55.806;38.082;2024-02-26T05:09:48;100430.97;;;-3.22;64.98
55990;BME280;41875;55.806;38.082;2024-02-26T05:12:54;100413.47;;;-3.43;63.40
55990;BME280;41875;55.806;38.082;2024-02-26T05:16:03;100435.41;;;-3.55;64.08
55990;BME280;41875;55.806;38.082;2024-02-26T05:19:08;100417.13;;;-3.22;62.93
55990;BME280;41875;55.806;38.082;2024-02-26T05:22:12;100410.22;;;-3.22;63.36
55990;BME280;41875;55.806;38.082;2024-02-26T05:25:17;100415.63;;;-3.56;62.98
55990;BME280;41875;55.806;38.082;2024-02-26T05:28:24;100406.50;;;-3.13;62.82
55990;BME280;41875;55.806;38.082;2024-02-26T05:31:54;100409.13;;;-3.14;63.86
55990;BME280;41875;55.806;38.082;2024-02-26T05:34:59;100426.88;;;-3.57;63.42
55990;BME280;41875;55.806;38.082;2024-02-26T05:38:06;100409.09;;;-3.13;64.53
55990;BME280;41875;55.806;38.082;2024-02-26T05:41:11;100424.25;;;-3.29;63.80
55990;BME280;41875;55.806;38.082;2024-02-26T05:44:15;100432.47;;;-2.62;63.00
55990;BME280;41875;55.806;38.082;2024-02-26T05:47:18;100419.63;;;-3.19;62.29
55990;BME280;41875;55.806;38.082;2024-02-26T05:50:23;100422.88;;;-3.12;63.05
55990;BME280;41875;55.806;38.082;2024-02-26T05:53:30;100422.78;;;-2.82;62.17
55990;BME280;41875;55.806;38.082;2024-02-26T05:56:45;100423.50;;;-2.52;61.75
55990;BME280;41875;55.806;38.082;2024-02-26T05:59:59;100413.78;;;-2.47;61.43
55990;BME280;41875;55.806;38.082;2024-02-26T06:03:20;100425.91;;;-2.72;60.53
55990;BME280;41875;55.806;38.082;2024-02-26T06:06:23;100415.19;;;-2.62;62.91
55990;BME280;41875;55.806;38.082;2024-02-26T06:09:27;100417.41;;;-2.51;61.31
55990;BME280;41875;55.806;38.082;2024-02-26T06:12:35;100411.28;;;-2.24;62.58
55990;BME280;41875;55.806;38.082;2024-02-26T06:15:38;100420.16;;;-2.81;60.62
55990;BME280;41875;55.806;38.082;2024-02-26T06:18:42;100418.03;;;-2.44;61.76
55990;BME280;41875;55.806;38.082;2024-02-26T06:21:53;100414.03;;;-2.29;60.44
55990;BME280;41875;55.806;38.082;2024-02-26T06:25:04;100428.63;;;-2.50;61.37
55990;BME280;41875;55.806;38.082;2024-02-26T06:28:23;100408.34;;;-1.91;59.52
55990;BME280;41875;55.806;38.082;2024-02-26T06:32:01;100425.75;;;-2.17;59.36
55990;BME280;41875;55.806;38.082;2024-02-26T06:35:06;100430.88;;;-2.41;60.68
55990;BME280;41875;55.806;38.082;2024-02-26T06:38:11;100420.09;;;-2.05;60.36
55990;BME280;41875;55.806;38.082;2024-02-26T06:41:15;100432.34;;;-1.85;60.74
55990;BME280;41875;55.806;38.082;2024-02-26T06:44:20;100437.03;;;-2.43;60.25
55990;BME280;41875;55.806;38.082;2024-02-26T06:47:24;100423.50;;;-2.52;60.80
55990;BME280;41875;55.806;38.082;2024-02-26T06:50:28;100430.03;;;-1.92;58.85
55990;BME280;41875;55.806;38.082;2024-02-26T06:53:32;100418.50;;;-1.39;56.93
55990;BME280;41875;55.806;38.082;2024-02-26T06:56:35;100428.25;;;-1.66;60.78
55990;BME280;41875;55.806;38.082;2024-02-26T07:00:07;100418.22;;;-2.01;60.15
55990;BME280;41875;55.806;38.082;2024-02-26T07:03:10;100406.91;;;-1.98;60.00
55990;BME280;41875;55.806;38.082;2024-02-26T07:06:16;100430.00;;;-1.23;60.82
55990;BME280;41875;55.806;38.082;2024-02-26T07:09:20;100424.88;;;-1.46;58.24
55990;BME280;41875;55.806;38.082;2024-02-26T07:12:28;100431.50;;;-1.61;59.86
55990;BME280;41875;55.806;38.082;2024-02-26T07:16:16;100425.69;;;-1.46;59.59
55990;BME280;41875;55.806;38.082;2024-02-26T07:19:45;100418.50;;;-1.17;58.93
55990;BME280;41875;55.806;38.082;2024-02-26T07:22:59;100415.56;;;-1.76;59.13
55990;BME280;41875;55.806;38.082;2024-02-26T07:26:03;100421.69;;;-2.01;59.50
55990;BME280;41875;55.806;38.082;2024-02-26T07:29:07;100428.75;;;-0.92;59.00
55990;BME280;41875;55.806;38.082;2024-02-26T07:32:23;100419.47;;;-1.19;59.83
55990;BME280;41875;55.806;38.082;2024-02-26T07:35:48;100419.19;;;-0.69;57.16
55990;BME280;41875;55.806;38.082;2024-02-26T07:38:52;100415.84;;;-0.93;57.33
55990;BME280;41875;55.806;38.082;2024-02-26T07:41:58;100399.03;;;-0.24;58.83
55990;BME280;41875;55.806;38.082;2024-02-26T07:45:02;100392.19;;;-1.76;59.11
55990;BME280;41875;55.806;38.082;2024-02-26T07:48:07;100396.25;;;-0.60;58.83
55990;BME280;41875;55.806;38.082;2024-02-26T07:51:12;100399.00;;;-1.27;57.89
55990;BME280;41875;55.806;38.082;2024-02-26T07:54:17;100387.47;;;-0.99;58.17
55990;BME280;41875;55.806;38.082;2024-02-26T07:57:21;100379.19;;;-0.47;59.01
55990;BME280;41875;55.806;38.082;2024-02-26T08:00:25;100402.75;;;-0.92;57.75
55990;BME280;41875;55.806;38.082;2024-02-26T08:03:30;100404.06;;;-0.40;57.92
55990;BME280;41875;55.806;38.082;2024-02-26T08:06:34;100413.13;;;-0.09;57.87
55990;BME280;41875;55.806;38.082;2024-02-26T08:09:40;100414.97;;;0.27;54.41
55990;BME280;41875;55.806;38.082;2024-02-26T08:12:43;100413.72;;;0.17;56.70
55990;BME280;41875;55.806;38.082;2024-02-26T08:15:47;100410.91;;;-0.79;58.69
55990;BME280;41875;55.806;38.082;2024-02-26T08:18:52;100412.63;;;-0.17;58.14
55990;BME280;41875;55.806;38.082;2024-02-26T08:21:56;100414.19;;;-0.13;55.29
55990;BME280;41875;55.806;38.082;2024-02-26T08:25:03;100423.78;;;0.25;55.23
55990;BME280;41875;55.806;38.082;2024-02-26T08:28:09;100409.19;;;-0.18;58.29
55990;BME280;41875;55.806;38.082;2024-02-26T08:31:15;100402.28;;;-0.39;57.27
55990;BME280;41875;55.806;38.082;2024-02-26T08:34:20;100420.41;;;-0.36;55.81
55990;BME280;41875;55.806;38.082;2024-02-26T08:37:24;100412.91;;;0.53;56.65
55990;BME280;41875;55.806;38.082;2024-02-26T08:40:28;100411.94;;;0.56;54.06
55990;BME280;41875;55.806;38.082;2024-02-26T08:43:34;100403.78;;;0.06;56.87
55990;BME280;41875;55.806;38.082;2024-02-26T08:46:38;100394.81;;;0.50;55.57
55990;BME280;41875;55.806;38.082;2024-02-26T08:49:44;100400.16;;;0.47;56.33
55990;BME280;41875;55.806;38.082;2024-02-26T08:52:48;100389.47;;;0.15;54.54
55990;BME280;41875;55.806;38.082;2024-02-26T08:55:53;100379.72;;;-0.39;54.89
55990;BME280;41875;55.806;38.082;2024-02-26T08:58:56;100388.91;;;-0.71;56.76
55990;BME280;41875;55.806;38.082;2024-02-26T09:02:05;100389.63;;;-0.07;56.16
55990;BME280;41875;55.806;38.082;2024-02-26T09:05:12;100385.84;;;0.00;58.50
55990;BME280;41875;55.806;38.082;2024-02-26T09:08:15;100391.81;;;0.77;57.01
55990;BME280;41875;55.806;38.082;2024-02-26T09:11:19;100378.94;;;0.55;57.72
55990;BME280;41875;55.806;38.082;2024-02-26T09:14:23;100379.84;;;-0.02;57.92
55990;BME280;41875;55.806;38.082;2024-02-26T09:17:29;100383.72;;;0.08;58.42
55990;BME280;41875;55.806;38.082;2024-02-26T09:20:34;100391.34;;;0.50;56.18
55990;BME280;41875;55.806;38.082;2024-02-26T09:23:38;100374.53;;;0.19;55.18
55990;BME280;41875;55.806;38.082;2024-02-26T09:26:42;100354.13;;;0.28;57.25
55990;BME280;41875;55.806;38.082;2024-02-26T09:29:46;100364.97;;;0.38;54.67
55990;BME280;41875;55.806;38.082;2024-02-26T09:32:50;100381.03;;;0.10;58.14
55990;BME280;41875;55.806;38.082;2024-02-26T09:35:55;100374.59;;;0.73;57.48
55990;BME280;41875;55.806;38.082;2024-02-26T09:38:59;100370.88;;;0.96;56.65
55990;BME280;41875;55.806;38.082;2024-02-26T09:42:04;100346.63;;;0.40;55.50
55990;BME280;41875;55.806;38.082;2024-02-26T09:45:10;100365.56;;;1.15;56.25
55990;BME280;41875;55.806;38.082;2024-02-26T09:48:17;100375.22;;;1.48;54.89
55990;BME280;41875;55.806;38.082;2024-02-26T09:51:22;100358.44;;;0.84;53.66
55990;BME280;41875;55.806;38.082;2024-02-26T09:54:28;100377.63;;;1.35;53.58
55990;BME280;41875;55.806;38.082;2024-02-26T09:57:33;100367.66;;;1.60;56.21
55990;BME280;41875;55.806;38.082;2024-02-26T10:00:38;100365.88;;;0.91;54.57
55990;BME280;41875;55.806;38.082;2024-02-26T10:03:43;100358.22;;;1.06;56.31
55990;BME280;41875;55.806;38.082;2024-02-26T10:06:48;100368.19;;;0.43;55.70
55990;BME280;41875;55.806;38.082;2024-02-26T10:09:53;100366.56;;;0.95;56.33
55990;BME280;41875;55.806;38.082;2024-02-26T10:12:58;100374.88;;;1.21;55.50
55990;BME280;41875;55.806;38.082;2024-02-26T10:16:03;100352.38;;;1.01;54.31
55990;BME280;41875;55.806;38.082;2024-02-26T10:19:08;100366.56;;;0.60;54.07
55990;BME280;41875;55.806;38.082;2024-02-26T10:22:14;100333.50;;;0.24;55.53
55990;BME280;41875;55.806;38.082;2024-02-26T10:25:18;100359.66;;;0.59;57.23
55990;BME280;41875;55.806;38.082;2024-02-26T10:28:22;100357.88;;;0.04;56.07
55990;BME280;41875;55.806;38.082;2024-02-26T10:31:26;100348.25;;;0.79;55.93
55990;BME280;41875;55.806;38.082;2024-02-26T10:34:31;100354.84;;;0.50;56.01
55990;BME280;41875;55.806;38.082;2024-02-26T10:37:36;100350.47;;;0.33;57.07
55990;BME280;41875;55.806;38.082;2024-02-26T10:40:40;100348.03;;;0.47;56.72
55990;BME280;41875;55.806;38.082;2024-02-26T10:43:43;100340.91;;;-0.24;56.67
55990;BME280;41875;55.806;38.082;2024-02-26T10:46:47;100349.31;;;-0.38;57.52
55990;BME280;41875;55.806;38.082;2024-02-26T10:49:54;100361.47;;;0.20;57.01
55990;BME280;41875;55.806;38.082;2024-02-26T10:53:01;100356.16;;;0.22;59.19
55990;BME280;41875;55.806;38.082;2024-02-26T10:56:06;100352.44;;;0.64;57.11
55990;BME280;41875;55.806;38.082;2024-02-26T10:59:10;100350.72;;;0.63;54.50
55990;BME280;41875;55.806;38.082;2024-02-26T11:02:14;100351.22;;;0.15;57.22
55990;BME280;41875;55.806;38.082;2024-02-26T11:05:19;100338.84;;;0.57;57.21
55990;BME280;41875;55.806;38.082;2024-02-26T11:08:35;100347.34;;;0.43;56.53
55990;BME280;41875;55.806;38.082;2024-02-26T11:11:50;100347.22;;;0.82;55.05
55990;BME280;41875;55.806;38.082;2024-02-26T11:15:02;100345.88;;;0.74;55.08
55990;BME280;41875;55.806;38.082;2024-02-26T11:18:38;100337.44;;;-0.06;57.05
55990;BME280;41875;55.806;38.082;2024-02-26T11:21:56;100338.09;;;0.90;56.66
55990;BME280;41875;55.806;38.082;2024-02-26T11:25:25;100327.59;;;0.92;57.45
55990;BME280;41875;55.806;38.082;2024-02-26T11:28:30;100329.00;;;1.33;56.31
55990;BME280;41875;55.806;38.082;2024-02-26T11:31:37;100334.97;;;1.52;56.02
55990;BME280;41875;55.806;38.082;2024-02-26T11:34:54;100324.66;;;1.33;56.90
55990;BME280;41875;55.806;38.082;2024-02-26T11:38:05;100318.06;;;0.56;56.63
55990;BME280;41875;55.806;38.082;2024-02-26T11:41:11;100314.34;;;0.97;56.82
55990;BME280;41875;55.806;38.082;2024-02-26T11:44:28;100316.47;;;0.88;55.95
55990;BME280;41875;55.806;38.082;2024-02-26T11:47:35;100317.78;;;0.80;55.84
55990;BME280;41875;55.806;38.082;2024-02-26T11:50:39;100319.47;;;0.98;57.75
55990;BME280;41875;55.806;38.082;2024-02-26T11:53:46;100318.88;;;0.39;57.20
55990;BME280;41875;55.806;38.082;2024-02-26T11:56:52;100318.97;;;1.25;55.79
55990;BME280;41875;55.806;38.082;2024-02-26T11:59:56;100327.38;;;0.97;54.07
55990;BME280;41875;55.806;38.082;2024-02-26T12:03:00;100301.41;;;0.58;56.29
55990;BME280;41875;55.806;38.082;2024-02-26T12:06:08;100316.63;;;0.68;56.63
55990;BME280;41875;55.806;38.082;2024-02-26T12:09:12;100303.97;;;0.60;56.56
55990;BME280;41875;55.806;38.082;2024-02-26T12:12:19;100299.63;;;0.24;56.71
55990;BME280;41875;55.806;38.082;2024-02-26T12:15:23;100303.66;;;0.84;56.12
55990;BME280;41875;55.806;38.082;2024-02-26T12:18:29;100294.81;;;0.86;55.52
55990;BME280;41875;55.806;38.082;2024-02-26T12:21:36;100298.63;;;0.26;54.16
55990;BME280;41875;55.806;38.082;2024-02-26T12:24:40;100292.38;;;0.48;53.87
55990;BME280;41875;55.806;38.082;2024-02-26T12:27:45;100294.97;;;0.83;52.72
55990;BME280;41875;55.806;38.082;2024-02-26T12:30:49;100288.84;;;0.49;53.31
55990;BME280;41875;55.806;38.082;2024-02-26T12:33:54;100288.38;;;0.41;53.89
55990;BME280;41875;55.806;38.082;2024-02-26T12:36:58;100299.94;;;0.35;52.36
55990;BME280;41875;55.806;38.082;2024-02-26T12:40:02;100300.66;;;0.56;51.72
55990;BME280;41875;55.806;38.082;2024-02-26T12:43:07;100294.75;;;0.53;53.28
55990;BME280;41875;55.806;38.082;2024-02-26T12:46:15;100294.91;;;0.85;53.92
55990;BME280;41875;55.806;38.082;2024-02-26T12:49:19;100297.44;;;0.69;51.81
55990;BME280;41875;55.806;38.082;2024-02-26T12:52:22;100296.34;;;0.55;51.09
55990;BME280;41875;55.806;38.082;2024-02-26T12:55:26;100309.31;;;-0.17;52.79
55990;BME280;41875;55.806;38.082;2024-02-26T12:58:32;100307.25;;;-0.29;51.87
55990;BME280;41875;55.806;38.082;2024-02-26T13:01:36;100303.75;;;-0.09;51.46
55990;BME280;41875;55.806;38.082;2024-02-26T13:04:40;100310.81;;;-0.51;50.93
55990;BME280;41875;55.806;38.082;2024-02-26T13:07:45;100299.06;;;-0.40;53.03
55990;BME280;41875;55.806;38.082;2024-02-26T13:10:49;100308.41;;;-0.16;53.41
55990;BME280;41875;55.806;38.082;2024-02-26T13:13:55;100301.47;;;-0.36;52.33
55990;BME280;41875;55.806;38.082;2024-02-26T13:16:59;100313.31;;;-0.28;50.88
55990;BME280;41875;55.806;38.082;2024-02-26T13:20:04;100314.09;;;-0.45;50.46
55990;BME280;41875;55.806;38.082;2024-02-26T13:23:12;100302.66;;;-0.05;49.63
55990;BME280;41875;55.806;38.082;2024-02-26T13:26:16;100317.38;;;-0.23;51.93
55990;BME280;41875;55.806;38.082;2024-02-26T13:29:21;100302.34;;;-0.75;50.04
55990;BME280;41875;55.806;38.082;2024-02-26T13:32:25;100303.22;;;-0.55;50.74
55990;BME280;41875;55.806;38.082;2024-02-26T13:35:33;100290.59;;;-0.65;51.79
55990;BME280;41875;55.806;38.082;2024-02-26T13:38:38;100301.47;;;-0.55;52.20
55990;BME280;41875;55.806;38.082;2024-02-26T13:41:45;100311.53;;;-0.47;52.26
55990;BME280;41875;55.806;38.082;2024-02-26T13:44:50;100312.78;;;-0.56;54.36
55990;BME280;41875;55.806;38.082;2024-02-26T13:47:54;100314.66;;;-0.79;53.30
55990;BME280;41875;55.806;38.082;2024-02-26T13:51:05;100290.13;;;-0.54;52.08
55990;BME280;41875;55.806;38.082;2024-02-26T13:54:09;100301.97;;;-0.86;52.34
55990;BME280;41875;55.806;38.082;2024-02-26T13:57:13;100304.25;;;-0.79;53.87
55990;BME280;41875;55.806;38.082;2024-02-26T14:00:19;100305.16;;;-0.40;54.27
55990;BME280;41875;55.806;38.082;2024-02-26T14:03:23;100302.78;;;-0.65;53.69
55990;BME280;41875;55.806;38.082;2024-02-26T14:06:27;100299.63;;;-0.72;52.85
55990;BME280;41875;55.806;38.082;2024-02-26T14:09:33;100308.41;;;-0.95;52.34
55990;BME280;41875;55.806;38.082;2024-02-26T14:12:50;100307.94;;;-1.05;52.82
55990;BME280;41875;55.806;38.082;2024-02-26T14:15:55;100317.88;;;-0.73;55.34
55990;BME280;41875;55.806;38.082;2024-02-26T14:18:59;100310.88;;;-1.13;53.71
55990;BME280;41875;55.806;38.082;2024-02-26T14:22:03;100319.50;;;-1.33;53.35
55990;BME280;41875;55.806;38.082;2024-02-26T14:25:07;100319.59;;;-0.93;54.82
55990;BME280;41875;55.806;38.082;2024-02-26T14:28:13;100314.78;;;-1.02;55.52
55990;BME280;41875;55.806;38.082;2024-02-26T14:31:27;100313.94;;;-1.03;54.65
55990;BME280;41875;55.806;38.082;2024-02-26T14:34:31;100314.72;;;-1.21;54.86
55990;BME280;41875;55.806;38.082;2024-02-26T14:37:35;100320.69;;;-1.19;55.62
55990;BME280;41875;55.806;38.082;2024-02-26T14:40:39;100315.03;;;-1.09;56.52
55990;BME280;41875;55.806;38.082;2024-02-26T14:43:43;100313.44;;;-1.33;55.89
55990;BME280;41875;55.806;38.082;2024-02-26T14:46:50;100334.44;;;-1.60;54.14
55990;BME280;41875;55.806;38.082;2024-02-26T14:49:54;100336.94;;;-1.57;53.28
55990;BME280;41875;55.806;38.082;2024-02-26T14:52:58;100330.94;;;-1.59;54.73
55990;BME280;41875;55.806;38.082;2024-02-26T14:56:03;100320.34;;;-1.75;55.71
55990;BME280;41875;55.806;38.082;2024-02-26T14:59:06;100327.31;;;-2.00;54.91
55990;BME280;41875;55.806;38.082;2024-02-26T15:02:11;100326.56;;;-2.03;54.39
55990;BME280;41875;55.806;38.082;2024-02-26T15:05:15;100327.53;;;-1.82;56.45
55990;BME280;41875;55.806;38.082;2024-02-26T15:08:21;100325.84;;;-2.07;55.65
55990;BME280;41875;55.806;38.082;2024-02-26T15:11:25;100337.94;;;-2.30;53.45
55990;BME280;41875;55.806;38.082;2024-02-26T15:14:29;100336.44;;;-2.35;54.05
55990;BME280;41875;55.806;38.082;2024-02-26T15:17:34;100331.97;;;-2.32;54.41
55990;BME280;41875;55.806;38.082;2024-02-26T15:20:38;100316.97;;;-2.47;53.47
55990;BME280;41875;55.806;38.082;2024-02-26T15:23:55;100323.91;;;-2.24;54.57
55990;BME280;41875;55.806;38.082;2024-02-26T15:27:29;100335.22;;;-2.26;55.18
55990;BME280;41875;55.806;38.082;2024-02-26T15:30:33;100333.09;;;-2.64;54.03
55990;BME280;41875;55.806;38.082;2024-02-26T15:33:43;100337.19;;;-2.57;55.21
55990;BME280;41875;55.806;38.082;2024-02-26T15:36:48;100343.34;;;-2.36;55.80
55990;BME280;41875;55.806;38.082;2024-02-26T15:39:57;100341.22;;;-2.48;55.32
55990;BME280;41875;55.806;38.082;2024-02-26T15:43:01;100336.50;;;-2.62;54.69
55990;BME280;41875;55.806;38.082;2024-02-26T15:46:11;100333.97;;;-2.64;55.23
55990;BME280;41875;55.806;38.082;2024-02-26T15:49:25;100337.25;;;-2.58;54.58
55990;BME280;41875;55.806;38.082;2024-02-26T15:52:33;100344.25;;;-2.61;54.00
55990;BME280;41875;55.806;38.082;2024-02-26T15:55:37;100343.63;;;-2.43;54.42
55990;BME280;41875;55.806;38.082;2024-02-26T15:58:41;100331.38;;;-2.40;55.22
55990;BME280;41875;55.806;38.082;2024-02-26T16:01:44;100340.19;;;-2.44;54.58
55990;BME280;41875;55.806;38.082;2024-02-26T16:04:54;100342.38;;;-2.82;54.03
55990;BME280;41875;55.806;38.082;2024-02-26T16:08:00;100339.22;;;-2.65;54.48
55990;BME280;41875;55.806;38.082;2024-02-26T16:11:07;100342.19;;;-2.76;54.53
55990;BME280;41875;55.806;38.082;2024-02-26T16:14:16;100347.19;;;-2.97;54.46
55990;BME280;41875;55.806;38.082;2024-02-26T16:17:33;100336.00;;;-2.97;53.83
55990;BME280;41875;55.806;38.082;2024-02-26T16:20:38;100354.13;;;-2.72;56.72
55990;BME280;41875;55.806;38.082;2024-02-26T16:23:42;100352.22;;;-2.92;55.32
55990;BME280;41875;55.806;38.082;2024-02-26T16:26:46;100353.06;;;-3.17;54.42
55990;BME280;41875;55.806;38.082;2024-02-26T16:29:50;100342.13;;;-3.00;57.10
55990;BME280;41875;55.806;38.082;2024-02-26T16:32:54;100324.75;;;-3.23;56.54
55990;BME280;41875;55.806;38.082;2024-02-26T16:36:13;100348.34;;;-3.06;55.44
55990;BME280;41875;55.806;38.082;2024-02-26T16:39:17;100337.56;;;-3.18;56.53
55990;BME280;41875;55.806;38.082;2024-02-26T16:42:21;100340.31;;;-2.98;57.03
55990;BME280;41875;55.806;38.082;2024-02-26T16:45:25;100351.03;;;-2.82;57.46
55990;BME280;41875;55.806;38.082;2024-02-26T16:49:02;100340.19;;;-3.20;56.93
55990;BME280;41875;55.806;38.082;2024-02-26T16:52:12;100339.38;;;-3.22;57.95
55990;BME280;41875;55.806;38.082;2024-02-26T16:55:16;100339.09;;;-3.40;56.43
55990;BME280;41875;55.806;38.082;2024-02-26T16:58:21;100337.44;;;-3.15;58.00
55990;BME280;41875;55.806;38.082;2024-02-26T17:01:26;100343.03;;;-3.28;56.14
55990;BME280;41875;55.806;38.082;2024-02-26T17:04:30;100324.50;;;-3.42;56.91
55990;BME280;41875;55.806;38.082;2024-02-26T17:07:36;100324.34;;;-3.38;56.89